createdAt,value
2017-08-25T00:00:15.094Z,5.50
2017-08-25T00:01:20.436Z,5.40
2017-08-25T00:02:25.853Z,5.30
2017-08-25T00:03:30.311Z,5.20
2017-08-25T00:04:35.276Z,5.00
2017-08-25T00:05:40.268Z,4.90
2017-08-25T00:06:44.648Z,4.80
2017-08-25T00:07:53.976Z,4.80
2017-08-25T00:08:58.386Z,4.70
2017-08-25T00:10:04.008Z,4.60
2017-08-25T00:11:08.479Z,4.50
2017-08-25T00:12:12.773Z,4.40
2017-08-25T00:13:17.729Z,4.30
2017-08-25T00:14:22.107Z,4.30
2017-08-25T00:15:27.036Z,4.20
2017-08-25T00:16:32.117Z,4.30
2017-08-25T00:17:36.530Z,4.30
2017-08-25T00:18:40.830Z,4.40
2017-08-25T00:19:45.231Z,4.50
2017-08-25T00:20:49.632Z,4.70
2017-08-25T00:21:53.908Z,4.80
2017-08-25T00:22:58.867Z,5.00
2017-08-25T00:24:03.297Z,5.20
2017-08-25T00:25:07.714Z,5.40
2017-08-25T00:26:12.684Z,5.50
2017-08-25T00:27:17.081Z,5.70
2017-08-25T00:28:22.094Z,5.90
2017-08-25T00:29:26.489Z,6.00
2017-08-25T00:30:30.916Z,6.10
2017-08-25T00:31:35.285Z,6.30
2017-08-25T00:32:39.858Z,6.40
2017-08-25T00:33:44.384Z,6.50
2017-08-25T00:34:48.763Z,6.60
2017-08-25T00:35:53.785Z,6.60
2017-08-25T00:36:58.066Z,6.70
2017-08-25T00:38:03.096Z,6.80
2017-08-25T00:39:08.064Z,6.80
2017-08-25T00:40:12.348Z,6.90
2017-08-25T00:41:16.776Z,7.00
2017-08-25T00:42:21.208Z,7.00
2017-08-25T00:43:25.578Z,7.10
2017-08-25T00:44:29.931Z,7.10
2017-08-25T00:45:35.539Z,7.20
2017-08-25T00:46:40.512Z,7.20
2017-08-25T00:47:46.022Z,7.20
2017-08-25T00:48:50.455Z,7.30
2017-08-25T00:49:55.417Z,7.30
2017-08-25T00:51:00.120Z,7.40
2017-08-25T00:52:04.421Z,7.40
2017-08-25T00:53:09.407Z,7.40
2017-08-25T00:54:13.819Z,7.50
2017-08-25T00:55:18.252Z,7.50
2017-08-25T00:56:23.858Z,7.50
2017-08-25T00:57:28.345Z,7.60
2017-08-25T00:58:32.788Z,7.60
2017-08-25T00:59:37.238Z,7.60
2017-08-25T01:00:41.632Z,7.60
2017-08-25T01:01:45.963Z,7.70
2017-08-25T01:02:50.296Z,7.70
2017-08-25T01:03:54.615Z,7.70
2017-08-25T01:04:59.987Z,7.80
2017-08-25T01:06:04.507Z,7.80
2017-08-25T01:07:08.993Z,7.80
2017-08-25T01:08:13.446Z,7.80
2017-08-25T01:09:18.579Z,7.90
2017-08-25T01:10:22.859Z,7.90
2017-08-25T01:11:27.146Z,8.00
2017-08-25T01:12:31.510Z,8.00
2017-08-25T01:13:35.973Z,7.90
2017-08-25T01:14:40.295Z,7.80
2017-08-25T01:15:44.654Z,7.80
2017-08-25T01:16:48.932Z,7.70
2017-08-25T01:17:53.294Z,7.70
2017-08-25T01:18:57.932Z,7.70
2017-08-25T01:20:02.292Z,7.60
2017-08-25T01:21:06.737Z,7.60
2017-08-25T01:22:11.132Z,7.50
2017-08-25T01:23:15.745Z,7.40
2017-08-25T01:24:20.285Z,7.30
2017-08-25T01:25:25.248Z,7.10
2017-08-25T01:26:30.263Z,7.00
2017-08-25T01:27:34.573Z,6.90
2017-08-25T01:28:39.573Z,6.70
2017-08-25T01:29:43.843Z,6.60
2017-08-25T01:30:48.133Z,6.40
2017-08-25T01:31:52.487Z,6.20
2017-08-25T01:32:56.787Z,6.10
2017-08-25T01:34:01.184Z,6.00
2017-08-25T01:35:05.459Z,5.80
2017-08-25T01:36:09.840Z,5.70
2017-08-25T01:37:14.222Z,5.60
2017-08-25T01:38:18.470Z,5.40
2017-08-25T01:39:22.886Z,5.30
2017-08-25T01:40:27.835Z,5.20
2017-08-25T01:41:32.868Z,5.10
2017-08-25T01:42:37.149Z,5.00
2017-08-25T01:43:41.520Z,4.90
2017-08-25T01:44:45.789Z,4.80
2017-08-25T01:45:50.763Z,4.70
2017-08-25T01:46:55.166Z,4.70
2017-08-25T01:47:59.568Z,4.60
2017-08-25T01:49:03.873Z,4.50
2017-08-25T01:50:08.262Z,4.50
2017-08-25T01:51:13.542Z,4.50
2017-08-25T01:52:17.842Z,4.50
2017-08-25T01:53:22.141Z,4.50
2017-08-25T01:54:26.544Z,4.60
2017-08-25T01:55:30.804Z,4.70
2017-08-25T01:56:35.237Z,4.90
2017-08-25T01:57:41.643Z,5.00
2017-08-25T01:58:46.038Z,5.20
2017-08-25T01:59:51.021Z,5.40
2017-08-25T02:00:55.409Z,5.50
2017-08-25T02:02:00.530Z,5.70
2017-08-25T02:03:04.990Z,5.80
2017-08-25T02:04:09.971Z,6.00
2017-08-25T02:05:14.259Z,6.10
2017-08-25T02:06:18.658Z,6.20
2017-08-25T02:07:23.760Z,6.30
2017-08-25T02:08:28.146Z,6.40
2017-08-25T02:09:33.035Z,6.50
2017-08-25T02:10:37.497Z,6.60
2017-08-25T02:11:42.428Z,6.60
2017-08-25T02:12:46.824Z,6.70
2017-08-25T02:13:51.727Z,6.70
2017-08-25T02:14:56.806Z,6.80
2017-08-25T02:16:01.794Z,6.80
2017-08-25T02:17:06.790Z,6.90
2017-08-25T02:18:12.344Z,7.00
2017-08-25T02:19:16.735Z,7.00
2017-08-25T02:20:22.224Z,7.10
2017-08-25T02:21:27.205Z,7.10
2017-08-25T02:22:31.568Z,7.20
2017-08-25T02:23:35.867Z,7.20
2017-08-25T02:24:41.384Z,7.20
2017-08-25T02:25:46.346Z,7.30
2017-08-25T02:26:51.325Z,7.30
2017-08-25T02:27:55.730Z,7.40
2017-08-25T02:29:00.215Z,7.40
2017-08-25T02:30:05.289Z,7.40
2017-08-25T02:31:09.762Z,7.40
2017-08-25T02:32:15.351Z,7.50
2017-08-25T02:33:19.634Z,7.50
2017-08-25T02:34:24.135Z,7.50
2017-08-25T02:35:29.169Z,7.50
2017-08-25T02:36:34.390Z,7.60
2017-08-25T02:37:39.560Z,7.60
2017-08-25T02:38:43.842Z,7.60
2017-08-25T02:39:48.969Z,7.70
2017-08-25T02:40:56.208Z,7.70
2017-08-25T02:42:00.725Z,7.70
2017-08-25T02:43:06.577Z,7.80
2017-08-25T02:44:11.036Z,7.80
2017-08-25T02:45:15.344Z,7.90
2017-08-25T02:46:20.435Z,7.90
2017-08-25T02:47:25.402Z,7.90
2017-08-25T02:48:32.245Z,7.90
2017-08-25T02:49:36.650Z,7.90
2017-08-25T02:50:41.021Z,7.80
2017-08-25T02:51:47.146Z,7.70
2017-08-25T02:52:52.093Z,7.70
2017-08-25T02:53:57.028Z,7.70
2017-08-25T02:55:01.884Z,7.60
2017-08-25T02:56:06.287Z,7.60
2017-08-25T02:57:11.248Z,7.60
2017-08-25T02:58:15.623Z,7.50
2017-08-25T02:59:19.909Z,7.40
2017-08-25T03:00:24.327Z,7.30
2017-08-25T03:01:28.712Z,7.20
2017-08-25T03:02:32.993Z,7.10
2017-08-25T03:03:37.958Z,6.90
2017-08-25T03:04:42.346Z,6.70
2017-08-25T03:05:47.966Z,6.60
2017-08-25T03:06:52.347Z,6.50
2017-08-25T03:07:56.639Z,6.30
2017-08-25T03:09:01.580Z,6.20
2017-08-25T03:10:07.226Z,6.00
2017-08-25T03:11:11.595Z,5.90
2017-08-25T03:12:15.972Z,5.80
2017-08-25T03:13:20.380Z,5.60
2017-08-25T03:14:24.663Z,5.50
2017-08-25T03:15:29.603Z,5.40
2017-08-25T03:16:34.502Z,5.20
2017-08-25T03:17:38.787Z,5.10
2017-08-25T03:18:43.141Z,5.00
2017-08-25T03:19:47.397Z,4.90
2017-08-25T03:20:51.646Z,4.80
2017-08-25T03:21:55.969Z,4.70
2017-08-25T03:23:00.352Z,4.60
2017-08-25T03:24:05.274Z,4.50
2017-08-25T03:25:09.560Z,4.40
2017-08-25T03:26:14.521Z,4.40
2017-08-25T03:27:18.781Z,4.30
2017-08-25T03:28:23.649Z,4.20
2017-08-25T03:29:29.135Z,4.20
2017-08-25T03:30:34.162Z,4.30
2017-08-25T03:31:39.476Z,4.40
2017-08-25T03:32:44.536Z,4.50
2017-08-25T03:33:49.256Z,4.60
2017-08-25T03:34:54.034Z,4.70
2017-08-25T03:35:59.352Z,4.90
2017-08-25T03:37:04.601Z,5.00
2017-08-25T03:38:09.120Z,5.20
2017-08-25T03:39:14.372Z,5.40
2017-08-25T03:40:19.162Z,5.50
2017-08-25T03:41:24.452Z,5.70
2017-08-25T03:42:29.129Z,5.80
2017-08-25T03:43:33.699Z,5.90
2017-08-25T03:44:38.329Z,6.00
2017-08-25T03:45:42.726Z,6.10
2017-08-25T03:46:48.289Z,6.20
2017-08-25T03:47:52.806Z,6.30
2017-08-25T03:48:58.186Z,6.40
2017-08-25T03:50:02.626Z,6.40
2017-08-25T03:51:07.140Z,6.50
2017-08-25T03:52:12.416Z,6.60
2017-08-25T03:53:17.072Z,6.60
2017-08-25T03:54:21.681Z,6.70
2017-08-25T03:55:26.426Z,6.70
2017-08-25T03:56:30.830Z,6.80
2017-08-25T03:57:35.490Z,6.80
2017-08-25T03:58:40.411Z,6.90
2017-08-25T03:59:45.153Z,6.90
2017-08-25T04:00:49.764Z,7.00
2017-08-25T04:01:54.403Z,7.10
2017-08-25T04:02:58.960Z,7.10
2017-08-25T04:04:03.627Z,7.10
2017-08-25T04:05:09.082Z,7.20
2017-08-25T04:06:13.701Z,7.20
2017-08-25T04:07:19.065Z,7.20
2017-08-25T04:08:24.292Z,7.20
2017-08-25T04:09:28.713Z,7.30
2017-08-25T04:10:33.201Z,7.30
2017-08-25T04:11:38.394Z,7.30
2017-08-25T04:12:43.010Z,7.40
2017-08-25T04:13:47.580Z,7.40
2017-08-25T04:14:52.376Z,7.40
2017-08-25T04:15:57.076Z,7.40
2017-08-25T04:17:02.336Z,7.50
2017-08-25T04:18:07.643Z,7.50
2017-08-25T04:19:12.114Z,7.60
2017-08-25T04:20:16.924Z,7.60
2017-08-25T04:21:22.181Z,7.60
2017-08-25T04:22:27.887Z,7.70
2017-08-25T04:23:34.328Z,7.70
2017-08-25T04:24:39.051Z,7.70
2017-08-25T04:25:45.246Z,7.80
2017-08-25T04:26:49.771Z,7.80
2017-08-25T04:27:54.985Z,7.80
2017-08-25T04:28:59.515Z,7.90
2017-08-25T04:30:04.420Z,7.80
2017-08-25T04:31:11.916Z,7.80
2017-08-25T04:32:16.589Z,7.70
2017-08-25T04:33:21.209Z,7.70
2017-08-25T04:34:25.634Z,7.60
2017-08-25T04:35:30.041Z,7.60
2017-08-25T04:36:34.635Z,7.60
2017-08-25T04:37:39.895Z,7.50
2017-08-25T04:38:44.446Z,7.40
2017-08-25T04:39:48.876Z,7.30
2017-08-25T04:40:53.471Z,7.20
2017-08-25T04:41:58.927Z,7.10
2017-08-25T04:43:03.481Z,7.00
2017-08-25T04:44:09.013Z,6.90
2017-08-25T04:45:13.442Z,6.70
2017-08-25T04:46:18.064Z,6.60
2017-08-25T04:47:22.767Z,6.40
2017-08-25T04:48:27.435Z,6.30
2017-08-25T04:49:32.189Z,6.10
2017-08-25T04:50:36.721Z,6.00
2017-08-25T04:51:41.958Z,5.80
2017-08-25T04:52:46.872Z,5.70
2017-08-25T04:53:51.414Z,5.60
2017-08-25T04:54:56.061Z,5.40
2017-08-25T04:56:01.082Z,5.30
2017-08-25T04:57:07.521Z,5.20
2017-08-25T04:58:12.845Z,5.10
2017-08-25T04:59:17.518Z,5.00
2017-08-25T05:00:23.758Z,4.90
2017-08-25T05:01:29.105Z,4.70
2017-08-25T05:02:34.667Z,4.70
2017-08-25T05:03:39.634Z,4.60
2017-08-25T05:04:44.557Z,4.50
2017-08-25T05:05:49.821Z,4.40
2017-08-25T05:06:54.689Z,4.40
2017-08-25T05:07:59.301Z,4.30
2017-08-25T05:09:04.250Z,4.20
2017-08-25T05:10:09.675Z,4.20
2017-08-25T05:11:14.649Z,4.20
2017-08-25T05:12:20.010Z,4.30
2017-08-25T05:13:24.683Z,4.40
2017-08-25T05:14:29.990Z,4.50
2017-08-25T05:15:34.742Z,4.70
2017-08-25T05:16:39.769Z,4.80
2017-08-25T05:17:44.632Z,5.00
2017-08-25T05:18:49.447Z,5.10
2017-08-25T05:19:54.389Z,5.40
2017-08-25T05:20:59.618Z,5.60
2017-08-25T05:22:04.521Z,5.80
2017-08-25T05:23:09.212Z,5.90
2017-08-25T05:24:15.928Z,6.00
2017-08-25T05:25:21.056Z,6.10
2017-08-25T05:26:26.004Z,6.20
2017-08-25T05:27:31.605Z,6.30
2017-08-25T05:28:36.382Z,6.40
2017-08-25T05:29:41.069Z,6.70
2017-08-25T05:30:46.372Z,6.90
2017-08-25T05:31:51.207Z,7.00
2017-08-25T05:32:56.149Z,7.00
2017-08-25T05:34:01.673Z,7.10
2017-08-25T05:35:06.610Z,7.10
2017-08-25T05:36:11.948Z,7.20
2017-08-25T05:37:16.738Z,7.20
2017-08-25T05:38:22.111Z,7.20
2017-08-25T05:39:27.549Z,7.20
2017-08-25T05:40:32.283Z,7.30
2017-08-25T05:41:36.984Z,7.30
2017-08-25T05:42:41.700Z,7.30
2017-08-25T05:43:47.275Z,7.40
2017-08-25T05:44:51.746Z,7.40
2017-08-25T05:45:56.442Z,7.50
2017-08-25T05:47:01.040Z,7.50
2017-08-25T05:48:06.291Z,7.60
2017-08-25T05:49:11.054Z,7.60
2017-08-25T05:50:16.390Z,7.70
2017-08-25T05:51:21.231Z,7.70
2017-08-25T05:52:26.883Z,7.70
2017-08-25T05:53:31.576Z,7.70
2017-08-25T05:54:36.368Z,7.80
2017-08-25T05:55:41.162Z,7.80
2017-08-25T05:56:46.200Z,7.70
2017-08-25T05:57:51.526Z,7.70
2017-08-25T05:58:56.889Z,7.70
2017-08-25T06:00:01.816Z,7.70
2017-08-25T06:01:06.676Z,7.60
2017-08-25T06:02:11.823Z,7.60
2017-08-25T06:03:16.505Z,7.50
2017-08-25T06:04:21.735Z,7.40
2017-08-25T06:05:26.454Z,7.40
2017-08-25T06:06:31.130Z,7.20
2017-08-25T06:07:35.967Z,7.10
2017-08-25T06:08:41.501Z,7.00
2017-08-25T06:09:45.956Z,6.90
2017-08-25T06:10:52.348Z,6.90
2017-08-25T06:11:56.943Z,6.70
2017-08-25T06:13:01.759Z,6.60
2017-08-25T06:14:06.670Z,6.50
2017-08-25T06:15:11.398Z,6.30
2017-08-25T06:16:16.257Z,6.20
2017-08-25T06:17:20.947Z,6.20
2017-08-25T06:18:25.855Z,6.10
2017-08-25T06:19:30.607Z,6.00
2017-08-25T06:20:35.943Z,5.90
2017-08-25T06:21:40.421Z,5.80
2017-08-25T06:22:44.998Z,5.80
2017-08-25T06:23:49.844Z,5.70
2017-08-25T06:24:55.261Z,5.60
2017-08-25T06:26:00.568Z,5.50
2017-08-25T06:27:05.424Z,5.50
2017-08-25T06:28:10.123Z,5.40
2017-08-25T06:29:15.568Z,5.30
2017-08-25T06:30:20.913Z,5.20
2017-08-25T06:31:25.714Z,5.20
2017-08-25T06:32:30.836Z,5.10
2017-08-25T06:33:36.271Z,5.10
2017-08-25T06:34:41.413Z,5.00
2017-08-25T06:35:46.073Z,5.00
2017-08-25T06:36:50.892Z,5.00
2017-08-25T06:37:55.766Z,5.00
2017-08-25T06:39:00.607Z,5.10
2017-08-25T06:40:05.701Z,5.20
2017-08-25T06:41:10.434Z,5.30
2017-08-25T06:42:15.023Z,5.40
2017-08-25T06:43:19.618Z,5.60
2017-08-25T06:44:24.469Z,5.70
2017-08-25T06:45:29.289Z,5.80
2017-08-25T06:46:33.854Z,5.90
2017-08-25T06:47:39.620Z,6.00
2017-08-25T06:48:45.028Z,6.20
2017-08-25T06:49:50.363Z,6.20
2017-08-25T06:50:55.783Z,6.30
2017-08-25T06:52:00.810Z,6.40
2017-08-25T06:53:05.662Z,6.50
2017-08-25T06:54:10.362Z,6.60
2017-08-25T06:55:15.661Z,6.70
2017-08-25T06:56:20.680Z,6.70
2017-08-25T06:57:25.675Z,6.70
2017-08-25T06:58:30.944Z,6.80
2017-08-25T06:59:35.945Z,6.90
2017-08-25T07:00:40.623Z,6.90
2017-08-25T07:01:45.832Z,7.00
2017-08-25T07:02:50.719Z,7.00
2017-08-25T07:03:55.475Z,7.00
2017-08-25T07:05:00.134Z,7.10
2017-08-25T07:06:05.808Z,7.10
2017-08-25T07:07:10.294Z,7.20
2017-08-25T07:08:15.211Z,7.30
2017-08-25T07:09:20.105Z,7.40
2017-08-25T07:10:25.144Z,7.40
2017-08-25T07:11:30.140Z,7.50
2017-08-25T07:12:34.872Z,7.50
2017-08-25T07:13:40.255Z,7.50
2017-08-25T07:14:45.023Z,7.50
2017-08-25T07:15:49.930Z,7.60
2017-08-25T07:16:54.893Z,7.60
2017-08-25T07:17:59.617Z,7.60
2017-08-25T07:19:04.431Z,7.60
2017-08-25T07:20:09.142Z,7.70
2017-08-25T07:21:13.865Z,7.70
2017-08-25T07:22:18.372Z,7.70
2017-08-25T07:23:23.178Z,7.80
2017-08-25T07:24:29.010Z,7.80
2017-08-25T07:25:33.666Z,7.80
2017-08-25T07:26:39.270Z,7.90
2017-08-25T07:27:44.599Z,7.90
2017-08-25T07:28:49.503Z,7.90
2017-08-25T07:29:54.568Z,7.90
2017-08-25T07:31:00.105Z,7.80
2017-08-25T07:32:05.474Z,7.80
2017-08-25T07:33:10.333Z,7.70
2017-08-25T07:34:16.466Z,7.70
2017-08-25T07:35:21.305Z,7.70
2017-08-25T07:36:26.048Z,7.60
2017-08-25T07:37:31.025Z,7.60
2017-08-25T07:38:35.705Z,7.50
2017-08-25T07:39:40.672Z,7.40
2017-08-25T07:40:46.022Z,7.30
2017-08-25T07:41:51.023Z,7.20
2017-08-25T07:42:56.074Z,7.10
2017-08-25T07:44:01.085Z,6.90
2017-08-25T07:45:06.351Z,6.80
2017-08-25T07:46:11.278Z,6.60
2017-08-25T07:47:16.350Z,6.40
2017-08-25T07:48:21.786Z,6.40
2017-08-25T07:49:27.136Z,6.40
2017-08-25T07:50:32.744Z,6.60
2017-08-25T07:51:37.871Z,6.60
2017-08-25T07:52:42.844Z,6.60
2017-08-25T07:53:47.736Z,6.50
2017-08-25T07:54:52.556Z,6.40
2017-08-25T07:55:57.540Z,6.40
2017-08-25T07:57:03.418Z,6.30
2017-08-25T07:58:08.604Z,6.30
2017-08-25T07:59:13.529Z,6.20
2017-08-25T08:00:18.694Z,6.20
2017-08-25T08:01:24.090Z,6.10
2017-08-25T08:02:29.629Z,6.10
2017-08-25T08:03:34.556Z,6.00
2017-08-25T08:04:39.677Z,6.00
2017-08-25T08:05:44.725Z,5.80
2017-08-25T08:06:49.923Z,5.80
2017-08-25T08:07:54.652Z,5.70
2017-08-25T08:08:59.719Z,5.70
2017-08-25T08:10:05.373Z,5.60
2017-08-25T08:11:10.752Z,5.60
2017-08-25T08:12:15.929Z,5.60
2017-08-25T08:13:20.945Z,5.60
2017-08-25T08:14:26.056Z,5.70
2017-08-25T08:15:31.431Z,5.80
2017-08-25T08:16:37.380Z,5.90
2017-08-25T08:17:42.469Z,6.00
2017-08-25T08:18:47.808Z,6.10
2017-08-25T08:19:52.572Z,6.20
2017-08-25T08:20:57.731Z,6.20
2017-08-25T08:22:03.197Z,6.30
2017-08-25T08:23:08.189Z,6.50
2017-08-25T08:24:13.351Z,6.50
2017-08-25T08:25:18.266Z,6.60
2017-08-25T08:26:23.306Z,6.70
2017-08-25T08:27:28.977Z,6.70
2017-08-25T08:28:34.087Z,6.80
2017-08-25T08:29:42.328Z,6.80
2017-08-25T08:30:49.401Z,6.90
2017-08-25T08:31:56.427Z,6.90
2017-08-25T08:33:01.381Z,6.90
2017-08-25T08:34:06.738Z,7.00
2017-08-25T08:35:12.170Z,7.10
2017-08-25T08:36:17.624Z,7.10
2017-08-25T08:37:23.666Z,7.10
2017-08-25T08:38:28.978Z,7.10
2017-08-25T08:39:34.003Z,7.20
2017-08-25T08:40:40.192Z,7.20
2017-08-25T08:41:45.733Z,7.30
2017-08-25T08:42:50.643Z,7.30
2017-08-25T08:43:55.449Z,7.30
2017-08-25T08:45:00.227Z,7.40
2017-08-25T08:46:05.206Z,7.40
2017-08-25T08:47:10.551Z,7.50
2017-08-25T08:48:15.667Z,7.50
2017-08-25T08:49:21.205Z,7.60
2017-08-25T08:50:26.025Z,7.60
2017-08-25T08:51:30.930Z,7.60
2017-08-25T08:52:35.497Z,7.70
2017-08-25T08:53:40.091Z,7.70
2017-08-25T08:54:44.788Z,7.70
2017-08-25T08:55:50.237Z,7.80
2017-08-25T08:56:56.695Z,7.80
2017-08-25T08:58:01.824Z,7.80
2017-08-25T08:59:06.649Z,7.90
2017-08-25T09:00:11.667Z,7.90
2017-08-25T09:01:16.633Z,8.00
2017-08-25T09:02:21.567Z,8.00
2017-08-25T09:03:26.535Z,8.00
2017-08-25T09:04:32.397Z,8.10
2017-08-25T09:05:38.526Z,8.10
2017-08-25T09:06:43.168Z,8.10
2017-08-25T09:07:48.326Z,8.10
2017-08-25T09:08:54.102Z,8.10
2017-08-25T09:09:59.443Z,8.00
2017-08-25T09:11:04.378Z,8.00
2017-08-25T09:12:09.248Z,7.90
2017-08-25T09:13:14.572Z,7.90
2017-08-25T09:14:19.433Z,7.90
2017-08-25T09:15:25.183Z,7.80
2017-08-25T09:16:30.277Z,7.70
2017-08-25T09:17:35.898Z,7.60
2017-08-25T09:18:41.895Z,7.50
2017-08-25T09:19:47.123Z,7.40
2017-08-25T09:20:52.629Z,7.30
2017-08-25T09:21:57.985Z,7.10
2017-08-25T09:23:04.841Z,7.10
2017-08-25T09:24:10.300Z,6.90
2017-08-25T09:25:15.936Z,6.80
2017-08-25T09:26:21.247Z,6.70
2017-08-25T09:27:26.808Z,6.60
2017-08-25T09:28:32.720Z,6.50
2017-08-25T09:29:38.354Z,6.40
2017-08-25T09:30:43.318Z,6.40
2017-08-25T09:31:48.129Z,6.30
2017-08-25T09:32:53.326Z,6.20
2017-08-25T09:33:59.048Z,6.10
2017-08-25T09:35:04.805Z,6.00
2017-08-25T09:36:10.546Z,5.90
2017-08-25T09:37:17.420Z,5.80
2017-08-25T09:38:22.557Z,5.70
2017-08-25T09:39:27.802Z,5.60
2017-08-25T09:40:32.920Z,5.50
2017-08-25T09:41:40.127Z,5.50
2017-08-25T09:42:45.284Z,5.40
2017-08-25T09:43:51.587Z,5.40
2017-08-25T09:44:56.927Z,5.40
2017-08-25T09:46:04.784Z,5.40
2017-08-25T09:47:09.675Z,5.50
2017-08-25T09:48:15.066Z,5.60
2017-08-25T09:49:20.065Z,5.70
2017-08-25T09:50:25.485Z,5.80
2017-08-25T09:51:30.741Z,6.00
2017-08-25T09:52:36.412Z,6.00
2017-08-25T09:53:41.401Z,6.20
2017-08-25T09:54:47.740Z,6.30
2017-08-25T09:55:52.478Z,6.40
2017-08-25T09:56:57.433Z,6.50
2017-08-25T09:58:02.885Z,6.50
2017-08-25T09:59:08.209Z,6.60
2017-08-25T10:00:13.102Z,6.70
2017-08-25T10:01:17.791Z,6.70
2017-08-25T10:02:22.829Z,6.80
2017-08-25T10:03:28.164Z,6.80
2017-08-25T10:04:33.591Z,6.90
2017-08-25T10:05:39.645Z,6.90
2017-08-25T10:06:44.998Z,7.00
2017-08-25T10:07:50.615Z,7.00
2017-08-25T10:08:55.762Z,7.00
2017-08-25T10:10:00.767Z,7.10
2017-08-25T10:11:05.748Z,7.10
2017-08-25T10:12:10.892Z,7.10
2017-08-25T10:13:16.713Z,7.20
2017-08-25T10:14:21.761Z,7.20
2017-08-25T10:15:27.274Z,7.40
2017-08-25T10:16:32.837Z,7.50
2017-08-25T10:17:37.817Z,7.50
2017-08-25T10:18:42.676Z,7.60
2017-08-25T10:19:47.942Z,7.70
2017-08-25T10:20:53.511Z,7.70
2017-08-25T10:21:58.958Z,7.70
2017-08-25T10:23:04.936Z,7.70
2017-08-25T10:24:10.458Z,7.80
2017-08-25T10:25:17.739Z,7.80
2017-08-25T10:26:22.808Z,7.90
2017-08-25T10:27:28.962Z,8.10
2017-08-25T10:28:34.326Z,8.20
2017-08-25T10:29:40.510Z,8.30
2017-08-25T10:30:47.464Z,8.40
2017-08-25T10:31:53.978Z,8.60
2017-08-25T10:32:59.140Z,8.70
2017-08-25T10:34:04.974Z,8.70
2017-08-25T10:35:09.823Z,8.60
2017-08-25T10:36:15.404Z,8.60
2017-08-25T10:37:21.460Z,8.50
2017-08-25T10:38:27.265Z,8.50
2017-08-25T10:39:33.013Z,8.50
2017-08-25T10:40:40.317Z,8.40
2017-08-25T10:41:45.364Z,8.40
2017-08-25T10:42:50.418Z,8.30
2017-08-25T10:43:57.432Z,8.20
2017-08-25T10:45:03.240Z,8.10
2017-08-25T10:46:08.691Z,7.90
2017-08-25T10:47:25.082Z,7.80
2017-08-25T10:48:30.220Z,7.70
2017-08-25T10:49:35.531Z,7.60
2017-08-25T10:50:41.357Z,7.50
2017-08-25T10:51:46.614Z,7.40
2017-08-25T10:52:52.785Z,7.30
2017-08-25T10:53:58.775Z,7.20
2017-08-25T10:55:04.402Z,7.10
2017-08-25T10:56:10.372Z,7.00
2017-08-25T10:57:15.612Z,7.00
2017-08-25T10:58:21.483Z,6.90
2017-08-25T10:59:26.542Z,6.80
2017-08-25T11:00:31.363Z,6.70
2017-08-25T11:01:36.121Z,6.60
2017-08-25T11:02:41.081Z,6.50
2017-08-25T11:03:45.944Z,6.40
2017-08-25T11:04:51.484Z,6.30
2017-08-25T11:05:56.718Z,6.30
2017-08-25T11:07:03.812Z,6.20
2017-08-25T11:08:08.607Z,6.10
2017-08-25T11:09:14.198Z,6.00
2017-08-25T11:10:19.914Z,6.00
2017-08-25T11:11:26.436Z,6.10
2017-08-25T11:12:32.172Z,6.10
2017-08-25T11:13:38.850Z,6.20
2017-08-25T11:14:43.715Z,6.30
2017-08-25T11:15:48.731Z,6.40
2017-08-25T11:16:53.549Z,6.50
2017-08-25T11:17:59.231Z,6.60
2017-08-25T11:19:04.935Z,6.80
2017-08-25T11:20:10.053Z,7.00
2017-08-25T11:21:15.247Z,7.10
2017-08-25T11:22:20.341Z,7.20
2017-08-25T11:23:26.839Z,7.30
2017-08-25T11:24:31.957Z,7.40
2017-08-25T11:25:36.922Z,7.50
2017-08-25T11:26:43.964Z,7.60
2017-08-25T11:27:49.004Z,7.70
2017-08-25T11:28:53.942Z,7.80
2017-08-25T11:29:58.847Z,7.90
2017-08-25T11:31:04.692Z,7.90
2017-08-25T11:32:09.792Z,8.00
2017-08-25T11:33:16.187Z,8.10
2017-08-25T11:34:20.805Z,8.10
2017-08-25T11:35:26.188Z,8.20
2017-08-25T11:36:31.061Z,8.20
2017-08-25T11:37:35.923Z,8.30
2017-08-25T11:38:40.910Z,8.40
2017-08-25T11:39:46.503Z,8.40
2017-08-25T11:40:51.719Z,8.50
2017-08-25T11:41:56.622Z,8.60
2017-08-25T11:43:01.711Z,8.60
2017-08-25T11:44:07.942Z,8.70
2017-08-25T11:45:13.481Z,8.70
2017-08-25T11:46:18.632Z,8.80
2017-08-25T11:47:24.108Z,8.80
2017-08-25T11:48:29.081Z,8.80
2017-08-25T11:49:34.170Z,8.90
2017-08-25T11:50:38.810Z,9.00
2017-08-25T11:51:43.909Z,9.00
2017-08-25T11:52:48.733Z,9.10
2017-08-25T11:53:53.607Z,9.10
2017-08-25T11:54:58.557Z,9.10
2017-08-25T11:56:03.606Z,9.20
2017-08-25T11:57:09.882Z,9.20
2017-08-25T11:58:16.051Z,9.30
2017-08-25T11:59:22.240Z,9.30
2017-08-25T12:00:28.029Z,9.30
2017-08-25T12:01:33.107Z,9.40
2017-08-25T12:02:39.308Z,9.30
2017-08-25T12:03:45.565Z,9.20
2017-08-25T12:04:51.221Z,9.10
2017-08-25T12:05:57.554Z,9.00
2017-08-25T12:07:02.558Z,9.00
2017-08-25T12:08:07.370Z,8.90
2017-08-25T12:09:12.323Z,8.90
2017-08-25T12:10:17.606Z,8.90
2017-08-25T12:11:22.464Z,8.90
2017-08-25T12:12:27.417Z,8.80
2017-08-25T12:13:33.112Z,8.70
2017-08-25T12:14:38.273Z,8.60
2017-08-25T12:15:43.390Z,8.50
2017-08-25T12:16:48.471Z,8.40
2017-08-25T12:17:54.135Z,8.30
2017-08-25T12:18:59.757Z,8.20
2017-08-25T12:20:04.793Z,8.10
2017-08-25T12:21:09.789Z,7.90
2017-08-25T12:22:14.620Z,7.80
2017-08-25T12:23:19.814Z,7.70
2017-08-25T12:24:24.913Z,7.60
2017-08-25T12:25:30.921Z,7.50
2017-08-25T12:26:36.216Z,7.40
2017-08-25T12:27:41.024Z,7.30
2017-08-25T12:28:46.338Z,7.20
2017-08-25T15:39:29.199Z,8.20
2017-08-25T15:40:34.225Z,8.30
2017-08-25T15:41:39.199Z,8.60
2017-08-25T15:42:45.075Z,8.70
2017-08-25T15:43:50.290Z,8.80
2017-08-25T15:44:55.296Z,8.80
2017-08-25T15:46:00.169Z,8.80
2017-08-25T15:47:05.255Z,8.80
2017-08-25T15:48:10.390Z,8.80
2017-08-25T15:49:15.552Z,8.80
2017-08-25T15:50:20.970Z,8.80
2017-08-25T15:51:27.026Z,8.90
2017-08-25T15:52:32.044Z,8.80
2017-08-25T15:53:36.733Z,8.80
2017-08-25T15:54:42.031Z,8.80
2017-08-25T15:55:47.549Z,8.70
2017-08-25T15:56:53.006Z,8.70
2017-08-25T15:57:58.340Z,8.60
2017-08-25T15:59:03.305Z,8.60
2017-08-25T16:00:08.752Z,8.50
2017-08-25T16:01:14.260Z,8.50
2017-08-25T16:02:18.994Z,8.40
2017-08-25T16:03:24.142Z,8.40
2017-08-25T16:04:29.411Z,8.30
2017-08-25T16:05:34.509Z,8.30
